createdAt,value
2019-02-04T00:03:08.808Z,11.75
2019-02-04T00:08:12.616Z,7.50
2019-02-04T00:13:16.768Z,8.00
2019-02-04T00:18:20.534Z,7.25
2019-02-04T00:23:24.312Z,7.50
2019-02-04T00:28:28.087Z,8.00
2019-02-04T00:33:31.860Z,7.00
2019-02-04T00:38:35.634Z,8.00
2019-02-04T00:43:39.410Z,7.25
2019-02-04T00:48:43.185Z,7.50
2019-02-04T00:53:46.968Z,7.40
2019-02-04T00:58:50.732Z,6.50
2019-02-04T01:03:54.500Z,9.75
2019-02-04T01:08:58.261Z,6.80
2019-02-04T01:14:02.431Z,7.75
2019-02-04T01:19:06.200Z,7.75
2019-02-04T01:24:09.990Z,7.20
2019-02-04T01:29:13.761Z,6.00
2019-02-04T01:34:17.549Z,8.75
2019-02-04T01:39:21.384Z,6.50
2019-02-04T01:44:25.227Z,7.25
2019-02-04T01:49:29.367Z,7.50
2019-02-04T01:54:33.157Z,7.40
2019-02-04T01:59:36.982Z,7.50
2019-02-04T02:04:40.771Z,8.50
2019-02-04T02:09:44.553Z,7.40
2019-02-04T02:14:48.329Z,7.00
2019-02-04T02:19:52.122Z,7.00
2019-02-04T02:24:56.277Z,8.50
2019-02-04T02:30:00.098Z,6.60
2019-02-04T02:35:04.586Z,3.80
2019-02-04T02:40:12.490Z,6.00
2019-02-04T02:45:16.262Z,6.25
2019-02-04T02:50:20.033Z,8.00
2019-02-04T02:55:23.821Z,6.20
2019-02-04T03:00:28.612Z,5.20
2019-02-04T03:05:32.376Z,7.00
2019-02-04T03:10:36.135Z,5.75
2019-02-04T03:15:39.942Z,6.80
2019-02-04T03:20:43.726Z,6.60
2019-02-04T03:25:47.490Z,7.00
2019-02-04T03:30:51.280Z,5.75
2019-02-04T03:35:55.067Z,7.00
2019-02-04T03:40:58.846Z,6.00
2019-02-04T03:46:02.615Z,6.00
2019-02-04T03:51:06.385Z,6.00
2019-02-04T03:56:10.151Z,6.25
2019-02-04T04:01:13.927Z,7.00
2019-02-04T04:06:17.739Z,5.25
2019-02-04T04:11:21.499Z,7.00
2019-02-04T04:16:25.283Z,5.00
2019-02-04T04:21:29.060Z,8.00
2019-02-04T04:26:32.845Z,5.60
2019-02-04T04:31:36.623Z,6.40
2019-02-04T04:36:40.784Z,6.00
2019-02-04T04:41:44.566Z,7.00
2019-02-04T04:46:48.323Z,6.75
2019-02-04T04:51:52.107Z,5.40
2019-02-04T04:56:55.875Z,6.40
2019-02-04T05:01:59.640Z,5.75
2019-02-04T05:07:03.416Z,6.00
2019-02-04T05:12:07.183Z,5.00
2019-02-04T05:17:10.982Z,4.80
2019-02-04T05:22:14.746Z,7.60
2019-02-04T05:27:18.527Z,5.00
2019-02-04T05:32:22.285Z,6.00
2019-02-04T05:37:26.068Z,5.75
2019-02-04T05:42:29.833Z,5.00
2019-02-04T05:47:33.616Z,5.00
2019-02-04T05:52:37.383Z,5.00
2019-02-04T05:57:41.159Z,5.00
2019-02-04T06:02:44.933Z,3.40
2019-02-04T06:07:48.699Z,5.75
2019-02-04T06:12:52.852Z,5.00
2019-02-04T06:17:56.615Z,5.25
2019-02-04T06:23:00.405Z,3.50
2019-02-04T06:28:04.204Z,5.00
2019-02-04T06:33:08.002Z,5.80
2019-02-04T06:38:11.798Z,6.75
2019-02-04T06:43:15.575Z,5.00
2019-02-04T06:48:19.341Z,3.50
2019-02-04T06:53:23.111Z,5.50
2019-02-04T06:58:26.873Z,5.50
2019-02-04T07:03:30.641Z,5.25
2019-02-04T07:08:34.408Z,3.00
2019-02-04T07:13:42.145Z,5.50
2019-02-04T07:18:44.044Z,5.80
2019-02-04T07:23:47.866Z,5.00
2019-02-04T07:28:51.647Z,5.00
2019-02-04T07:33:55.488Z,4.75
2019-02-04T07:38:59.259Z,4.20
2019-02-04T07:44:03.058Z,3.00
2019-02-04T07:49:06.839Z,3.00
2019-02-04T07:54:10.601Z,5.00
2019-02-04T07:59:14.370Z,3.00
2019-02-04T08:04:18.232Z,19.00
2019-02-04T08:09:22.113Z,17.00
2019-02-04T08:14:26.282Z,16.25
2019-02-04T08:19:30.095Z,14.00
2019-02-04T08:24:34.261Z,12.00
2019-02-04T08:29:38.044Z,9.00
2019-02-04T08:34:41.884Z,8.40
2019-02-04T08:39:45.959Z,6.00
2019-02-04T08:44:49.838Z,7.00
2019-02-04T08:49:58.575Z,8.50
2019-02-04T08:54:59.264Z,6.00
2019-02-04T09:00:03.220Z,5.00
2019-02-04T09:05:08.090Z,5.00
2019-02-04T09:10:15.140Z,3.00
2019-02-04T09:15:18.990Z,4.25
2019-02-04T09:20:22.999Z,4.80
2019-02-04T09:25:26.854Z,5.00
2019-02-04T09:30:30.684Z,3.50
2019-02-04T09:35:34.500Z,3.25
2019-02-04T09:40:40.803Z,4.20
2019-02-04T09:45:45.297Z,4.75
2019-02-04T09:50:51.839Z,3.00
2019-02-04T09:55:57.120Z,3.00
2019-02-04T10:01:04.140Z,2.80
2019-02-04T10:06:06.706Z,16.25
2019-02-04T10:11:10.533Z,7.00
2019-02-04T10:16:14.372Z,9.25
2019-02-04T10:21:18.250Z,5.50
2019-02-04T10:26:22.035Z,5.80
2019-02-04T10:31:25.977Z,6.00
2019-02-04T10:36:29.795Z,6.00
2019-02-04T10:41:35.040Z,3.50
2019-02-04T10:46:38.996Z,3.00
2019-02-04T10:51:42.860Z,5.20
2019-02-04T10:56:46.753Z,5.00
2019-02-04T11:01:50.619Z,5.50
2019-02-04T11:06:54.446Z,5.00
2019-02-04T11:11:58.391Z,5.25
2019-02-04T11:17:02.172Z,3.20
2019-02-04T11:22:06.005Z,3.00
2019-02-04T11:27:09.977Z,5.25
2019-02-04T11:32:13.814Z,5.00
2019-02-04T11:37:17.687Z,5.00
2019-02-04T11:42:21.892Z,5.75
2019-02-04T11:47:25.767Z,4.25
2019-02-04T11:52:29.594Z,3.00
2019-02-04T11:57:33.536Z,6.00
2019-02-04T12:02:37.338Z,5.00
2019-02-04T12:07:41.137Z,3.00
2019-02-04T12:12:45.068Z,5.00
2019-02-04T12:17:48.880Z,3.75
2019-02-04T12:22:52.725Z,3.00
2019-02-04T12:27:56.576Z,3.00
2019-02-04T12:33:00.498Z,4.80
2019-02-04T12:38:04.303Z,7.00
2019-02-04T12:43:08.608Z,3.00
2019-02-04T12:48:12.376Z,3.00
2019-02-04T12:53:16.168Z,3.00
2019-02-04T12:58:19.969Z,5.00
2019-02-04T13:03:23.941Z,5.25
2019-02-04T13:08:27.727Z,5.00
2019-02-04T13:13:31.514Z,3.00
2019-02-04T13:18:35.306Z,3.80
2019-02-04T13:23:39.131Z,2.25
2019-02-04T13:28:42.981Z,3.25
2019-02-04T13:33:46.781Z,3.75
2019-02-04T13:38:50.595Z,4.00
2019-02-04T13:43:54.769Z,3.00
2019-02-04T13:48:58.560Z,3.00
2019-02-04T13:54:02.348Z,3.00
2019-02-04T13:59:06.148Z,2.25
2019-02-04T14:04:09.964Z,2.20
2019-02-04T14:09:17.783Z,3.25
2019-02-04T14:14:21.575Z,3.75
2019-02-04T14:19:25.747Z,3.00
2019-02-04T14:24:29.535Z,2.50
2019-02-04T14:29:33.812Z,2.75
2019-02-04T14:34:37.815Z,13.00
2019-02-04T14:39:41.604Z,8.00
2019-02-04T14:44:50.642Z,6.00
2019-02-04T14:50:38.743Z,4.00
2019-02-04T14:56:30.315Z,5.75
2019-02-04T15:02:10.558Z,3.00
2019-02-04T15:07:52.441Z,3.00
2019-02-04T15:13:13.892Z,3.00
2019-02-04T15:18:57.287Z,3.00
2019-02-04T15:24:10.582Z,7.50
2019-02-04T15:29:46.820Z,3.25
2019-02-04T15:41:07.922Z,4.00
2019-02-04T15:46:36.808Z,3.00
2019-02-04T15:51:46.055Z,3.00
2019-02-04T15:56:49.855Z,4.00
2019-02-04T16:01:53.674Z,3.00
2019-02-04T16:06:57.531Z,3.00
2019-02-04T16:12:01.330Z,2.25
2019-02-04T16:17:08.172Z,3.00
2019-02-04T16:22:12.142Z,3.00
2019-02-04T16:27:15.953Z,3.20
2019-02-04T16:32:20.001Z,3.00
2019-02-04T16:37:23.814Z,3.00
2019-02-04T16:42:27.652Z,3.00
2019-02-04T16:47:31.718Z,2.25
2019-02-04T16:52:35.548Z,3.00
2019-02-04T16:57:39.341Z,4.00
2019-02-04T17:02:43.808Z,2.00
2019-02-04T17:07:47.744Z,1.75
2019-02-04T17:12:51.618Z,2.00
2019-02-04T17:17:55.546Z,2.00
2019-02-04T17:22:59.428Z,3.00
2019-02-04T17:28:03.230Z,3.25
2019-02-04T17:33:07.196Z,2.00
2019-02-04T17:38:11.676Z,2.00
2019-02-04T17:43:15.775Z,2.00
2019-02-04T17:48:19.573Z,2.00
2019-02-04T17:53:33.957Z,3.00
2019-02-04T17:58:29.637Z,3.00
2019-02-04T18:03:33.968Z,2.75
2019-02-04T18:08:38.101Z,2.25
2019-02-04T18:13:42.952Z,2.50
2019-02-04T18:18:47.197Z,3.75
2019-02-04T18:23:51.191Z,2.00
2019-02-04T18:28:56.018Z,3.00
2019-02-04T18:34:00.672Z,2.50
2019-02-04T18:39:08.611Z,2.00
2019-02-04T18:44:15.298Z,3.00
2019-02-04T18:49:21.513Z,2.00
2019-02-04T18:54:27.081Z,3.00
2019-02-04T18:59:32.489Z,1.20
2019-02-04T19:04:37.601Z,2.60
2019-02-04T19:09:43.046Z,2.00
2019-02-04T19:14:48.582Z,2.00
2019-02-04T19:19:53.896Z,3.00
2019-02-04T19:24:58.776Z,2.00
2019-02-04T19:30:05.872Z,3.00
2019-02-04T19:35:12.342Z,3.00
2019-02-04T19:40:18.834Z,2.00
2019-02-04T19:45:24.681Z,3.00
2019-02-04T19:50:32.621Z,1.25
2019-02-04T19:55:38.265Z,2.00
2019-02-04T20:00:45.429Z,2.00
2019-02-04T20:05:51.750Z,1.80
2019-02-04T20:10:57.978Z,1.00
2019-02-04T20:16:04.180Z,1.50
2019-02-04T20:21:10.709Z,2.25
2019-02-04T20:26:17.399Z,2.00
2019-02-04T20:31:24.691Z,1.75
2019-02-04T20:36:31.699Z,3.00
2019-02-04T20:41:37.966Z,2.00
2019-02-04T20:46:44.339Z,2.00
2019-02-04T20:51:50.521Z,2.60
2019-02-04T20:56:56.954Z,2.00
2019-02-04T21:02:02.432Z,2.25
2019-02-04T21:07:08.344Z,1.40
2019-02-04T21:12:13.488Z,2.00
2019-02-04T21:17:18.624Z,1.75
2019-02-04T21:22:24.388Z,2.00
2019-02-04T21:27:28.538Z,2.00
2019-02-04T21:32:33.125Z,2.25
2019-02-04T21:37:37.308Z,2.00
2019-02-04T21:42:41.334Z,3.00
2019-02-04T21:47:45.190Z,1.40
2019-02-04T21:52:48.970Z,2.00
2019-02-04T21:57:52.989Z,2.00
2019-02-04T22:02:56.808Z,1.00
2019-02-04T22:08:00.705Z,1.00
2019-02-04T22:13:04.497Z,1.80
2019-02-04T22:18:08.795Z,1.25
2019-02-04T22:23:13.048Z,2.80
2019-02-04T22:28:17.340Z,1.25
2019-02-04T22:33:21.463Z,1.20
2019-02-04T22:38:25.641Z,1.00
2019-02-04T22:43:29.461Z,1.25
2019-02-04T22:48:33.269Z,1.00
2019-02-04T22:53:37.098Z,1.25
2019-02-04T22:58:40.937Z,2.00
2019-02-04T23:03:44.754Z,2.00
2019-02-04T23:08:48.559Z,2.00
2019-02-04T23:13:52.754Z,2.00
2019-02-04T23:18:56.545Z,2.00
2019-02-04T23:24:00.369Z,2.50
2019-02-04T23:29:04.380Z,1.40
2019-02-04T23:34:08.175Z,1.75
2019-02-04T23:39:12.000Z,2.00
2019-02-04T23:44:15.781Z,2.00
2019-02-04T23:49:19.565Z,2.00
2019-02-04T23:54:23.366Z,2.80
2019-02-04T23:59:27.167Z,1.00
